QBA62D CYQY-CYHZ
Flight info
| Callsign | QBA62D |
|---|---|
| Flight time | 0h 39m |
| Altitude | 22000 |
| Route | YQY DCT CAYLY CABOT5 |
| Aircraft | B736/M-SDE2E3FGHIRWXY/LB1 |
Departure
| Time | 2026-05-05 00:07 |
|---|---|
| Airport | Sydney / J.A. Douglas McCurdy Airport (CYQY) |
Arrival
| Time | 2026-05-05 00:46 |
|---|---|
| Airport | Halifax / Stanfield International Airport (CYHZ) |
| Time | Latitude | Longitude | Altitude | Speed | Heading |
|---|---|---|---|---|---|
| 2026-05-04 23:42 | 46.16688 | -60.04684 | 199 ft | 0 kts | 0° |
| 2026-05-05 00:00 | 46.16670 | -60.04684 | 204 ft | 4 kts | 357° |
| 2026-05-05 00:00 | 46.16643 | -60.04682 | 203 ft | 4 kts | 359° |
| 2026-05-05 00:01 | 46.16617 | -60.04685 | 200 ft | 4 kts | 28° |
| 2026-05-05 00:01 | 46.16609 | -60.04692 | 207 ft | 0 kts | 45° |
| 2026-05-05 00:03 | 46.16611 | -60.04690 | 206 ft | 1 kts | 45° |
| 2026-05-05 00:03 | 46.16640 | -60.04649 | 201 ft | 9 kts | 44° |
| 2026-05-05 00:04 | 46.16687 | -60.04582 | 199 ft | 10 kts | 45° |
| 2026-05-05 00:04 | 46.16706 | -60.04494 | 196 ft | 10 kts | 91° |
| 2026-05-05 00:04 | 46.16705 | -60.04380 | 196 ft | 13 kts | 91° |
| 2026-05-05 00:04 | 46.16704 | -60.04241 | 195 ft | 14 kts | 89° |
| 2026-05-05 00:05 | 46.16668 | -60.04163 | 200 ft | 9 kts | 198° |
| 2026-05-05 00:05 | 46.16657 | -60.04177 | 194 ft | 0 kts | 229° |
| 2026-05-05 00:06 | 46.16646 | -60.04195 | 196 ft | 13 kts | 226° |
| 2026-05-05 00:06 | 46.16405 | -60.04552 | 197 ft | 84 kts | 225° |
| 2026-05-05 00:06 | 46.15857 | -60.05360 | 206 ft | 139 kts | 225° |
| 2026-05-05 00:06 | 46.15147 | -60.06393 | 638 ft | 147 kts | 226° |
| 2026-05-05 00:07 | 46.14443 | -60.07483 | 1319 ft | 147 kts | 233° |
| 2026-05-05 00:07 | 46.13799 | -60.08660 | 1980 ft | 154 kts | 238° |
| 2026-05-05 00:07 | 46.13174 | -60.09946 | 2824 ft | 160 kts | 241° |
| 2026-05-05 00:07 | 46.12542 | -60.11306 | 3579 ft | 166 kts | 242° |
| 2026-05-05 00:08 | 46.12057 | -60.12788 | 4428 ft | 164 kts | 255° |
| 2026-05-05 00:08 | 46.11713 | -60.14395 | 5223 ft | 174 kts | 255° |
| 2026-05-05 00:08 | 46.11315 | -60.16218 | 5575 ft | 208 kts | 254° |
| 2026-05-05 00:08 | 46.10853 | -60.18313 | 6208 ft | 226 kts | 254° |
| 2026-05-05 00:09 | 46.10368 | -60.20494 | 7162 ft | 230 kts | 254° |
| 2026-05-05 00:09 | 46.09875 | -60.22697 | 8196 ft | 232 kts | 253° |
| 2026-05-05 00:09 | 46.09373 | -60.24927 | 9211 ft | 236 kts | 253° |
| 2026-05-05 00:09 | 46.08862 | -60.27197 | 10144 ft | 240 kts | 253° |
| 2026-05-05 00:10 | 46.08335 | -60.29530 | 10601 ft | 261 kts | 253° |
| 2026-05-05 00:10 | 46.07734 | -60.32189 | 10828 ft | 289 kts | 253° |
| 2026-05-05 00:10 | 46.07100 | -60.34985 | 11350 ft | 303 kts | 252° |
| 2026-05-05 00:10 | 46.06438 | -60.37890 | 12207 ft | 308 kts | 252° |
| 2026-05-05 00:11 | 46.05766 | -60.40835 | 13149 ft | 311 kts | 252° |
| 2026-05-05 00:11 | 46.05086 | -60.43811 | 14005 ft | 314 kts | 252° |
| 2026-05-05 00:11 | 46.04397 | -60.46821 | 14831 ft | 318 kts | 252° |
| 2026-05-05 00:11 | 46.03700 | -60.49861 | 15686 ft | 322 kts | 251° |
| 2026-05-05 00:12 | 46.02994 | -60.52937 | 16546 ft | 325 kts | 251° |
| 2026-05-05 00:12 | 46.02282 | -60.56036 | 17460 ft | 326 kts | 251° |
| 2026-05-05 00:12 | 46.01574 | -60.59111 | 18515 ft | 321 kts | 251° |
| 2026-05-05 00:12 | 46.00876 | -60.62140 | 19537 ft | 317 kts | 251° |
| 2026-05-05 00:13 | 46.00186 | -60.65129 | 20564 ft | 313 kts | 251° |
| 2026-05-05 00:13 | 45.99500 | -60.68101 | 21352 ft | 314 kts | 251° |
| 2026-05-05 00:13 | 45.98814 | -60.71064 | 21686 ft | 311 kts | 251° |
| 2026-05-05 00:13 | 45.98128 | -60.74025 | 21698 ft | 312 kts | 251° |
| 2026-05-05 00:14 | 45.97444 | -60.76974 | 21708 ft | 310 kts | 251° |
| 2026-05-05 00:14 | 45.96762 | -60.79909 | 21716 ft | 310 kts | 251° |
| 2026-05-05 00:14 | 45.96077 | -60.82849 | 21719 ft | 310 kts | 251° |
| 2026-05-05 00:14 | 45.95393 | -60.85788 | 21721 ft | 310 kts | 251° |
| 2026-05-05 00:15 | 45.94706 | -60.88733 | 21722 ft | 311 kts | 251° |
| 2026-05-05 00:15 | 45.94018 | -60.91674 | 21723 ft | 311 kts | 251° |
| 2026-05-05 00:15 | 45.93329 | -60.94621 | 21721 ft | 311 kts | 251° |
| 2026-05-05 00:15 | 45.92640 | -60.97564 | 21716 ft | 311 kts | 251° |
| 2026-05-05 00:16 | 45.91950 | -61.00506 | 21703 ft | 310 kts | 251° |
| 2026-05-05 00:16 | 45.91270 | -61.03400 | 21714 ft | 309 kts | 251° |
| 2026-05-05 00:16 | 45.90583 | -61.06322 | 21720 ft | 308 kts | 251° |
| 2026-05-05 00:16 | 45.89898 | -61.09232 | 21718 ft | 307 kts | 251° |
| 2026-05-05 00:17 | 45.89213 | -61.12137 | 21725 ft | 307 kts | 251° |
| 2026-05-05 00:17 | 45.88529 | -61.15035 | 21722 ft | 306 kts | 251° |
| 2026-05-05 00:17 | 45.87845 | -61.17927 | 21727 ft | 306 kts | 251° |
| 2026-05-05 00:17 | 45.87160 | -61.20818 | 21725 ft | 306 kts | 251° |
| 2026-05-05 00:18 | 45.86474 | -61.23713 | 21733 ft | 306 kts | 251° |
| 2026-05-05 00:18 | 45.85786 | -61.26612 | 21735 ft | 308 kts | 251° |
| 2026-05-05 00:18 | 45.85095 | -61.29522 | 21734 ft | 308 kts | 251° |
| 2026-05-05 00:18 | 45.84400 | -61.32440 | 21739 ft | 309 kts | 251° |
| 2026-05-05 00:19 | 45.83705 | -61.35359 | 21736 ft | 310 kts | 251° |
| 2026-05-05 00:19 | 45.83005 | -61.38292 | 21731 ft | 311 kts | 251° |
| 2026-05-05 00:19 | 45.82303 | -61.41228 | 21727 ft | 311 kts | 251° |
| 2026-05-05 00:19 | 45.81602 | -61.44161 | 21717 ft | 311 kts | 251° |
| 2026-05-05 00:20 | 45.80910 | -61.47050 | 21730 ft | 310 kts | 251° |
| 2026-05-05 00:20 | 45.80209 | -61.49971 | 21738 ft | 310 kts | 251° |
| 2026-05-05 00:20 | 45.79499 | -61.52926 | 21730 ft | 309 kts | 251° |
| 2026-05-05 00:20 | 45.78809 | -61.55797 | 21731 ft | 309 kts | 251° |
| 2026-05-05 00:21 | 45.78110 | -61.58701 | 21737 ft | 308 kts | 251° |
| 2026-05-05 00:21 | 45.77410 | -61.61604 | 21750 ft | 308 kts | 251° |
| 2026-05-05 00:21 | 45.76711 | -61.64500 | 21741 ft | 308 kts | 251° |
| 2026-05-05 00:21 | 45.76011 | -61.67393 | 21746 ft | 307 kts | 251° |
| 2026-05-05 00:22 | 45.75311 | -61.70287 | 21741 ft | 307 kts | 251° |
| 2026-05-05 00:22 | 45.74610 | -61.73180 | 21746 ft | 308 kts | 251° |
| 2026-05-05 00:22 | 45.73909 | -61.76070 | 21757 ft | 308 kts | 251° |
| 2026-05-05 00:22 | 45.73205 | -61.78966 | 21739 ft | 308 kts | 251° |
| 2026-05-05 00:23 | 45.72499 | -61.81867 | 21744 ft | 308 kts | 251° |
| 2026-05-05 00:23 | 45.71794 | -61.84764 | 21739 ft | 308 kts | 251° |
| 2026-05-05 00:23 | 45.71088 | -61.87658 | 21746 ft | 309 kts | 252° |
| 2026-05-05 00:23 | 45.70387 | -61.90526 | 21744 ft | 309 kts | 252° |
| 2026-05-05 00:24 | 45.69676 | -61.93436 | 21742 ft | 310 kts | 252° |
| 2026-05-05 00:24 | 45.68954 | -61.96384 | 21755 ft | 310 kts | 252° |
| 2026-05-05 00:24 | 45.68250 | -61.99257 | 21748 ft | 311 kts | 252° |
| 2026-05-05 00:24 | 45.67533 | -62.02177 | 21746 ft | 311 kts | 252° |
| 2026-05-05 00:25 | 45.66815 | -62.05099 | 21738 ft | 311 kts | 252° |
| 2026-05-05 00:25 | 45.66098 | -62.08014 | 21748 ft | 311 kts | 252° |
| 2026-05-05 00:25 | 45.65379 | -62.10934 | 21745 ft | 311 kts | 252° |
| 2026-05-05 00:25 | 45.64661 | -62.13848 | 21757 ft | 311 kts | 252° |
| 2026-05-05 00:26 | 45.63941 | -62.16761 | 21752 ft | 311 kts | 252° |
| 2026-05-05 00:26 | 45.63220 | -62.19675 | 21750 ft | 310 kts | 252° |
| 2026-05-05 00:26 | 45.62496 | -62.22574 | 21747 ft | 310 kts | 250° |
| 2026-05-05 00:26 | 45.61462 | -62.25285 | 21751 ft | 314 kts | 237° |
| 2026-05-05 00:27 | 45.60073 | -62.27695 | 21741 ft | 311 kts | 234° |
| 2026-05-05 00:27 | 45.58651 | -62.29992 | 21455 ft | 306 kts | 233° |
| 2026-05-05 00:27 | 45.57244 | -62.32232 | 21096 ft | 303 kts | 233° |
| 2026-05-05 00:27 | 45.55852 | -62.34449 | 20707 ft | 297 kts | 233° |
| 2026-05-05 00:28 | 45.54487 | -62.36635 | 20278 ft | 294 kts | 234° |
| 2026-05-05 00:28 | 45.53140 | -62.38801 | 19849 ft | 290 kts | 234° |
| 2026-05-05 00:28 | 45.51807 | -62.40952 | 19420 ft | 288 kts | 234° |
| 2026-05-05 00:28 | 45.50489 | -62.43081 | 18999 ft | 285 kts | 234° |
| 2026-05-05 00:29 | 45.49206 | -62.45223 | 18539 ft | 282 kts | 237° |
| 2026-05-05 00:29 | 45.48043 | -62.47461 | 18122 ft | 280 kts | 239° |
| 2026-05-05 00:29 | 45.46936 | -62.49685 | 17667 ft | 278 kts | 239° |
| 2026-05-05 00:29 | 45.45838 | -62.51904 | 17350 ft | 271 kts | 239° |
| 2026-05-05 00:30 | 45.44757 | -62.54083 | 16974 ft | 267 kts | 239° |
| 2026-05-05 00:30 | 45.43687 | -62.56233 | 16557 ft | 265 kts | 239° |
| 2026-05-05 00:30 | 45.42623 | -62.58363 | 16148 ft | 263 kts | 239° |
| 2026-05-05 00:30 | 45.41564 | -62.60475 | 15755 ft | 261 kts | 239° |
| 2026-05-05 00:31 | 45.40510 | -62.62573 | 15360 ft | 260 kts | 239° |
| 2026-05-05 00:31 | 45.39460 | -62.64658 | 14960 ft | 260 kts | 240° |
| 2026-05-05 00:31 | 45.38397 | -62.66770 | 14561 ft | 265 kts | 240° |
| 2026-05-05 00:31 | 45.37313 | -62.68921 | 14151 ft | 270 kts | 239° |
| 2026-05-05 00:32 | 45.36207 | -62.71111 | 13745 ft | 275 kts | 239° |
| 2026-05-05 00:32 | 45.35093 | -62.73312 | 13282 ft | 273 kts | 239° |
| 2026-05-05 00:32 | 45.33986 | -62.75493 | 12830 ft | 271 kts | 239° |
| 2026-05-05 00:32 | 45.32888 | -62.77655 | 12396 ft | 268 kts | 239° |
| 2026-05-05 00:33 | 45.31800 | -62.79794 | 11975 ft | 265 kts | 239° |
| 2026-05-05 00:33 | 45.30724 | -62.81910 | 11564 ft | 263 kts | 239° |
| 2026-05-05 00:33 | 45.29661 | -62.84000 | 11183 ft | 260 kts | 239° |
| 2026-05-05 00:33 | 45.28604 | -62.86076 | 10781 ft | 258 kts | 239° |
| 2026-05-05 00:34 | 45.27555 | -62.88138 | 10380 ft | 257 kts | 239° |
| 2026-05-05 00:34 | 45.26525 | -62.90154 | 10243 ft | 246 kts | 239° |
| 2026-05-05 00:34 | 45.25543 | -62.92074 | 10114 ft | 235 kts | 239° |
| 2026-05-05 00:34 | 45.24602 | -62.93912 | 10014 ft | 225 kts | 240° |
| 2026-05-05 00:35 | 45.23692 | -62.95696 | 9746 ft | 222 kts | 240° |
| 2026-05-05 00:35 | 45.22792 | -62.97459 | 9438 ft | 220 kts | 240° |
| 2026-05-05 00:35 | 45.21912 | -62.99183 | 9118 ft | 218 kts | 240° |
| 2026-05-05 00:35 | 45.21023 | -63.00923 | 8802 ft | 217 kts | 240° |
| 2026-05-05 00:36 | 45.20140 | -63.02650 | 8499 ft | 216 kts | 240° |
| 2026-05-05 00:36 | 45.19261 | -63.04369 | 8201 ft | 215 kts | 240° |
| 2026-05-05 00:36 | 45.18387 | -63.06074 | 7900 ft | 214 kts | 240° |
| 2026-05-05 00:36 | 45.17516 | -63.07775 | 7592 ft | 213 kts | 240° |
| 2026-05-05 00:37 | 45.16648 | -63.09468 | 7300 ft | 212 kts | 240° |
| 2026-05-05 00:37 | 45.15786 | -63.11146 | 7009 ft | 211 kts | 240° |
| 2026-05-05 00:37 | 45.14925 | -63.12824 | 6717 ft | 210 kts | 240° |
| 2026-05-05 00:37 | 45.14068 | -63.14492 | 6442 ft | 209 kts | 240° |
| 2026-05-05 00:38 | 45.13213 | -63.16155 | 6167 ft | 209 kts | 240° |
| 2026-05-05 00:38 | 45.12359 | -63.17815 | 5876 ft | 208 kts | 240° |
| 2026-05-05 00:38 | 45.11508 | -63.19468 | 5603 ft | 208 kts | 240° |
| 2026-05-05 00:38 | 45.10657 | -63.21120 | 5329 ft | 208 kts | 240° |
| 2026-05-05 00:39 | 45.09805 | -63.22774 | 5045 ft | 208 kts | 240° |
| 2026-05-05 00:39 | 45.08949 | -63.24434 | 4747 ft | 209 kts | 240° |
| 2026-05-05 00:39 | 45.08095 | -63.26090 | 4453 ft | 208 kts | 240° |
| 2026-05-05 00:39 | 45.07241 | -63.27745 | 4193 ft | 207 kts | 240° |
| 2026-05-05 00:40 | 45.06414 | -63.29343 | 4100 ft | 197 kts | 240° |
| 2026-05-05 00:40 | 45.05617 | -63.30881 | 4009 ft | 190 kts | 240° |
| 2026-05-05 00:40 | 45.04852 | -63.32357 | 3931 ft | 180 kts | 240° |
| 2026-05-05 00:40 | 45.04129 | -63.33751 | 3846 ft | 173 kts | 240° |
| 2026-05-05 00:41 | 45.03423 | -63.35114 | 3757 ft | 171 kts | 240° |
| 2026-05-05 00:41 | 45.02713 | -63.36462 | 3689 ft | 173 kts | 236° |
| 2026-05-05 00:41 | 45.01798 | -63.37611 | 3578 ft | 180 kts | 226° |
| 2026-05-05 00:41 | 45.00805 | -63.38631 | 3340 ft | 176 kts | 225° |
| 2026-05-05 00:42 | 44.99826 | -63.39597 | 3122 ft | 167 kts | 225° |
| 2026-05-05 00:42 | 44.98899 | -63.40512 | 2905 ft | 159 kts | 226° |
| 2026-05-05 00:42 | 44.98004 | -63.41399 | 2696 ft | 152 kts | 225° |
| 2026-05-05 00:42 | 44.97179 | -63.42213 | 2496 ft | 137 kts | 226° |
| 2026-05-05 00:43 | 44.96451 | -63.42931 | 2337 ft | 119 kts | 227° |
| 2026-05-05 00:43 | 44.96016 | -63.43363 | 2216 ft | 112 kts | 227° |
| 2026-05-05 00:43 | 44.95373 | -63.44005 | 2070 ft | 114 kts | 226° |
| 2026-05-05 00:43 | 44.94715 | -63.44659 | 1914 ft | 116 kts | 226° |
| 2026-05-05 00:44 | 44.94054 | -63.45315 | 1756 ft | 115 kts | 225° |
| 2026-05-05 00:44 | 44.93393 | -63.45968 | 1599 ft | 116 kts | 224° |
| 2026-05-05 00:44 | 44.92730 | -63.46626 | 1426 ft | 116 kts | 223° |
| 2026-05-05 00:44 | 44.92072 | -63.47277 | 1262 ft | 116 kts | 221° |
| 2026-05-05 00:45 | 44.91403 | -63.47938 | 1103 ft | 119 kts | 220° |
| 2026-05-05 00:45 | 44.90717 | -63.48619 | 935 ft | 123 kts | 218° |
| 2026-05-05 00:45 | 44.90003 | -63.49327 | 765 ft | 131 kts | 218° |
| 2026-05-05 00:45 | 44.89253 | -63.50070 | 600 ft | 133 kts | 218° |
| 2026-05-05 00:46 | 44.88509 | -63.50815 | 466 ft | 127 kts | 214° |
| 2026-05-05 00:46 | 44.87907 | -63.51407 | 449 ft | 76 kts | 213° |
| 2026-05-05 00:46 | 44.87596 | -63.51720 | 448 ft | 47 kts | 216° |
| 2026-05-05 00:46 | 44.87454 | -63.51922 | 448 ft | 20 kts | 250° |
| 2026-05-05 00:47 | 44.87452 | -63.52044 | 450 ft | 9 kts | 289° |
| 2026-05-05 00:47 | 44.87477 | -63.52107 | 451 ft | 5 kts | 302° |
| 2026-05-05 00:47 | 44.87499 | -63.52123 | 451 ft | 4 kts | 356° |
| 2026-05-05 00:47 | 44.87533 | -63.52099 | 451 ft | 9 kts | 33° |
| 2026-05-05 00:48 | 44.87595 | -63.52039 | 449 ft | 12 kts | 34° |
| 2026-05-05 00:48 | 44.87665 | -63.51970 | 451 ft | 14 kts | 35° |
| 2026-05-05 00:48 | 44.87770 | -63.51866 | 450 ft | 21 kts | 35° |
| 2026-05-05 00:48 | 44.87893 | -63.51745 | 451 ft | 21 kts | 35° |
| 2026-05-05 00:49 | 44.88012 | -63.51627 | 450 ft | 21 kts | 35° |
| 2026-05-05 00:49 | 44.88126 | -63.51514 | 449 ft | 20 kts | 35° |
| 2026-05-05 00:49 | 44.88238 | -63.51403 | 450 ft | 19 kts | 34° |
| 2026-05-05 00:49 | 44.88349 | -63.51291 | 450 ft | 18 kts | 38° |
| 2026-05-05 00:50 | 44.88442 | -63.51200 | 450 ft | 11 kts | 13° |
| 2026-05-05 00:50 | 44.88497 | -63.51214 | 450 ft | 7 kts | 354° |
| 2026-05-05 00:50 | 44.88545 | -63.51225 | 451 ft | 7 kts | 346° |
| 2026-05-05 00:50 | 44.88572 | -63.51279 | 451 ft | 7 kts | 299° |
| 2026-05-05 00:51 | 44.88598 | -63.51335 | 451 ft | 7 kts | 303° |
| 2026-05-05 00:51 | 44.88610 | -63.51361 | 451 ft | 0 kts | 303° |